createdAt,value
2019-05-26T00:00:32.248Z,10.48
2019-05-26T00:03:04.111Z,10.40
2019-05-26T00:05:35.886Z,10.42
2019-05-26T00:08:07.677Z,10.40
2019-05-26T00:10:39.523Z,10.35
2019-05-26T00:13:11.375Z,10.31
2019-05-26T00:15:43.158Z,10.24
2019-05-26T00:18:14.982Z,10.18
2019-05-26T00:20:47.821Z,10.17
2019-05-26T00:23:19.607Z,10.15
2019-05-26T00:25:51.384Z,10.13
2019-05-26T00:28:23.158Z,10.12
2019-05-26T00:30:54.932Z,10.06
2019-05-26T00:33:26.714Z,10.02
2019-05-26T00:35:58.480Z,9.94
2019-05-26T00:38:30.256Z,9.90
2019-05-26T00:41:02.097Z,9.81
2019-05-26T00:43:33.884Z,9.74
2019-05-26T00:46:06.094Z,9.72
2019-05-26T00:48:37.873Z,9.59
2019-05-26T00:51:09.649Z,9.56
2019-05-26T00:53:41.731Z,9.51
2019-05-26T00:56:13.492Z,9.48
2019-05-26T00:58:45.277Z,9.44
2019-05-26T01:01:18.187Z,9.36
2019-05-26T01:03:49.958Z,9.37
2019-05-26T01:06:21.726Z,9.34
2019-05-26T01:08:53.635Z,9.37
2019-05-26T01:11:25.405Z,9.38
2019-05-26T01:13:58.153Z,9.34
2019-05-26T01:16:30.892Z,9.37
2019-05-26T01:19:09.068Z,9.36
2019-05-26T01:21:40.832Z,9.33
2019-05-26T01:24:12.603Z,9.27
2019-05-26T01:26:44.434Z,9.09
2019-05-26T01:29:16.205Z,8.87
2019-05-26T01:31:47.968Z,8.92
2019-05-26T01:34:19.749Z,8.87
2019-05-26T01:36:51.692Z,8.84
2019-05-26T01:39:23.525Z,8.79
2019-05-26T01:41:55.288Z,8.84
2019-05-26T01:44:27.066Z,8.78
2019-05-26T01:46:58.832Z,8.74
2019-05-26T01:49:30.609Z,8.67
2019-05-26T01:52:02.372Z,8.59
2019-05-26T01:54:35.214Z,8.62
2019-05-26T01:57:08.052Z,8.61
2019-05-26T01:59:40.297Z,8.64
2019-05-26T02:02:13.136Z,8.59
2019-05-26T02:04:44.921Z,8.66
2019-05-26T02:07:16.676Z,8.68
2019-05-26T02:09:48.462Z,8.63
2019-05-26T02:12:20.223Z,8.68
2019-05-26T02:14:52.014Z,8.65
2019-05-26T02:17:23.782Z,8.57
2019-05-26T02:19:55.630Z,8.48
2019-05-26T02:22:27.390Z,8.36
2019-05-26T02:24:59.157Z,8.21
2019-05-26T02:27:31.885Z,8.13
2019-05-26T02:30:04.126Z,8.02
2019-05-26T02:32:36.138Z,8.01
2019-05-26T02:35:10.311Z,7.98
2019-05-26T02:37:42.307Z,7.91
2019-05-26T02:40:15.004Z,7.91
2019-05-26T02:42:46.760Z,7.89
2019-05-26T02:45:20.603Z,7.91
2019-05-26T02:47:52.443Z,7.84
2019-05-26T02:50:24.907Z,7.83
2019-05-26T02:52:56.667Z,7.81
2019-05-26T02:55:28.427Z,7.77
2019-05-26T02:58:00.189Z,7.61
2019-05-26T03:00:41.937Z,7.59
2019-05-26T03:03:15.980Z,7.55
2019-05-26T03:05:47.812Z,7.56
2019-05-26T03:08:19.568Z,7.57
2019-05-26T03:10:52.671Z,7.53
2019-05-26T03:13:24.423Z,7.51
2019-05-26T03:15:59.100Z,7.42
2019-05-26T03:18:33.396Z,7.44
2019-05-26T03:21:05.303Z,7.45
2019-05-26T03:23:37.134Z,7.44
2019-05-26T03:26:10.703Z,7.53
2019-05-26T03:28:42.551Z,7.58
2019-05-26T03:31:14.386Z,7.51
2019-05-26T03:33:46.157Z,7.50
2019-05-26T03:36:17.913Z,7.53
2019-05-26T03:38:49.676Z,7.52
2019-05-26T03:41:21.453Z,7.55
2019-05-26T03:43:53.218Z,7.53
2019-05-26T03:46:24.971Z,7.51
2019-05-26T03:48:56.724Z,7.50
2019-05-26T03:51:28.496Z,7.51
2019-05-26T03:54:00.241Z,7.47
2019-05-26T03:56:32.070Z,7.43
2019-05-26T03:59:03.831Z,7.42
2019-05-26T04:01:36.573Z,7.45
2019-05-26T04:04:08.319Z,7.45
2019-05-26T04:06:40.082Z,7.36
2019-05-26T04:09:11.835Z,7.37
2019-05-26T04:11:43.601Z,7.36
2019-05-26T04:14:15.690Z,7.30
2019-05-26T04:16:47.446Z,7.22
2019-05-26T04:19:19.204Z,7.23
2019-05-26T04:21:51.255Z,7.28
2019-05-26T04:24:23.015Z,7.30
2019-05-26T04:26:54.791Z,7.38
2019-05-26T04:29:26.540Z,7.39
2019-05-26T04:32:01.851Z,7.49
2019-05-26T04:34:31.820Z,7.59
2019-05-26T04:37:03.531Z,7.66
2019-05-26T04:39:35.287Z,7.69
2019-05-26T04:42:08.209Z,7.74
2019-05-26T04:44:39.964Z,7.82
2019-05-26T04:47:11.729Z,7.89
2019-05-26T04:49:43.493Z,7.96
2019-05-26T04:52:15.340Z,7.99
2019-05-26T04:54:47.109Z,8.10
2019-05-26T04:57:18.880Z,8.15
2019-05-26T04:59:50.639Z,8.23
2019-05-26T05:02:22.406Z,8.31
2019-05-26T05:04:54.155Z,8.39
2019-05-26T05:07:28.564Z,8.47
2019-05-26T05:09:59.632Z,8.52
2019-05-26T05:12:31.674Z,8.63
2019-05-26T05:15:05.277Z,8.70
2019-05-26T05:17:37.083Z,8.79
2019-05-26T05:20:10.053Z,8.91
2019-05-26T05:22:41.818Z,9.03
2019-05-26T05:25:15.265Z,9.13
2019-05-26T05:27:47.934Z,9.19
2019-05-26T05:30:20.709Z,9.27
2019-05-26T05:32:52.481Z,9.40
2019-05-26T05:35:24.244Z,9.50
2019-05-26T05:37:56.020Z,9.64
2019-05-26T05:40:28.819Z,9.78
2019-05-26T05:43:00.615Z,9.90
2019-05-26T05:45:32.395Z,10.06
2019-05-26T05:48:05.148Z,10.22
2019-05-26T05:50:39.354Z,10.33
2019-05-26T05:53:11.055Z,10.45
2019-05-26T05:55:42.835Z,10.57
2019-05-26T05:58:14.628Z,10.62
2019-05-26T06:00:47.047Z,10.69
2019-05-26T06:03:19.814Z,10.70
2019-05-26T06:05:51.894Z,10.83
2019-05-26T06:08:23.681Z,11.00
2019-05-26T06:10:55.463Z,11.09
2019-05-26T06:13:27.264Z,11.22
2019-05-26T06:15:59.062Z,11.23
2019-05-26T06:18:30.848Z,11.36
2019-05-26T06:21:02.635Z,11.51
2019-05-26T06:23:36.928Z,11.70
2019-05-26T06:26:09.075Z,11.85
2019-05-26T06:28:41.102Z,11.99
2019-05-26T06:31:12.893Z,12.03
2019-05-26T06:33:44.766Z,12.10
2019-05-26T06:36:16.546Z,12.29
2019-05-26T06:38:48.349Z,12.40
2019-05-26T06:41:32.994Z,12.44
2019-05-26T06:43:54.269Z,12.60
2019-05-26T06:46:26.053Z,12.70
2019-05-26T06:49:00.706Z,12.65
2019-05-26T06:51:32.547Z,12.81
2019-05-26T06:54:04.407Z,12.88
2019-05-26T06:56:36.200Z,13.03
2019-05-26T06:59:07.996Z,13.10
2019-05-26T07:01:39.778Z,13.31
2019-05-26T07:04:11.577Z,13.41
2019-05-26T07:06:43.366Z,13.50
2019-05-26T07:09:15.160Z,13.48
2019-05-26T07:11:55.631Z,13.55
2019-05-26T07:14:20.432Z,13.67
2019-05-26T07:16:52.282Z,13.77
2019-05-26T07:19:24.083Z,14.03
2019-05-26T07:21:55.864Z,14.20
2019-05-26T07:24:29.412Z,14.01
2019-05-26T07:27:01.138Z,14.03
2019-05-26T07:29:32.938Z,14.05
2019-05-26T07:32:05.594Z,14.11
2019-05-26T07:34:37.392Z,14.15
2019-05-26T07:37:09.171Z,14.28
2019-05-26T07:39:40.970Z,14.35
2019-05-26T07:42:12.756Z,14.37
2019-05-26T07:44:44.550Z,14.49
2019-05-26T07:47:16.338Z,14.42
2019-05-26T07:49:48.136Z,14.62
2019-05-26T07:52:20.014Z,14.68
2019-05-26T07:54:52.241Z,14.62
2019-05-26T07:57:24.026Z,14.83
2019-05-26T07:59:55.832Z,14.98
2019-05-26T08:02:27.619Z,15.14
2019-05-26T08:04:59.436Z,15.17
2019-05-26T08:07:31.203Z,15.27
2019-05-26T08:10:03.156Z,15.30
2019-05-26T08:12:34.949Z,15.40
2019-05-26T08:15:07.782Z,15.40
2019-05-26T08:17:39.592Z,15.48
2019-05-26T08:20:12.620Z,15.55
2019-05-26T08:22:44.471Z,15.65
2019-05-26T08:25:16.852Z,15.76
2019-05-26T08:27:48.704Z,15.69
2019-05-26T08:30:20.736Z,15.89
2019-05-26T08:32:52.991Z,16.14
2019-05-26T08:35:24.933Z,16.04
2019-05-26T08:37:57.180Z,15.93
2019-05-26T08:40:28.973Z,16.02
2019-05-26T08:43:01.201Z,16.12
2019-05-26T08:45:32.983Z,16.25
2019-05-26T08:48:05.105Z,16.13
2019-05-26T08:50:36.889Z,16.17
2019-05-26T08:53:08.673Z,16.15
2019-05-26T08:55:40.470Z,16.48
2019-05-26T08:58:12.252Z,16.52
2019-05-26T09:00:44.059Z,16.85
2019-05-26T09:03:15.860Z,16.73
2019-05-26T09:05:47.942Z,17.05
2019-05-26T09:08:19.725Z,17.04
2019-05-26T09:10:51.521Z,17.05
2019-05-26T09:13:23.300Z,17.12
2019-05-26T09:15:55.089Z,17.13
2019-05-26T09:18:26.940Z,17.30
2019-05-26T09:21:00.377Z,17.32
2019-05-26T09:23:32.152Z,17.39
2019-05-26T09:26:04.015Z,17.53
2019-05-26T09:28:35.792Z,17.21
2019-05-26T09:31:07.583Z,17.50
2019-05-26T09:33:39.436Z,17.49
2019-05-26T09:36:11.227Z,17.58
2019-05-26T09:38:43.001Z,17.53
2019-05-26T09:41:14.794Z,17.19
2019-05-26T09:43:46.543Z,17.50
2019-05-26T09:46:18.633Z,17.85
2019-05-26T09:48:50.406Z,18.02
2019-05-26T09:51:23.162Z,17.58
2019-05-26T09:54:01.607Z,17.76
2019-05-26T09:56:28.403Z,18.00
2019-05-26T09:59:00.180Z,18.22
2019-05-26T10:01:31.958Z,18.15
2019-05-26T10:04:03.724Z,18.13
2019-05-26T10:06:35.778Z,18.27
2019-05-26T10:09:08.977Z,18.24
2019-05-26T10:11:40.837Z,18.40
2019-05-26T10:14:12.604Z,18.57
2019-05-26T10:16:44.376Z,18.75
2019-05-26T10:19:16.139Z,18.86
2019-05-26T10:21:47.923Z,19.01
2019-05-26T10:24:20.032Z,19.01
2019-05-26T10:26:51.809Z,18.81
2019-05-26T10:29:23.585Z,19.14
2019-05-26T10:31:55.376Z,19.02
2019-05-26T10:34:27.419Z,19.00
2019-05-26T10:36:59.205Z,18.84
2019-05-26T10:39:30.979Z,18.72
2019-05-26T10:42:02.757Z,18.80
2019-05-26T10:44:34.533Z,19.30
2019-05-26T10:47:06.318Z,19.26
2019-05-26T10:49:38.446Z,19.20
2019-05-26T10:52:10.804Z,19.07
2019-05-26T10:54:42.563Z,19.03
2019-05-26T10:57:14.340Z,18.68
2019-05-26T10:59:46.115Z,18.86
2019-05-26T11:02:17.899Z,19.15
2019-05-26T11:04:49.757Z,19.20
2019-05-26T11:07:21.534Z,19.21
2019-05-26T11:09:53.311Z,19.21
2019-05-26T11:12:25.085Z,19.11
2019-05-26T11:14:56.848Z,18.83
2019-05-26T11:17:28.631Z,19.04
2019-05-26T11:20:00.403Z,18.96
2019-05-26T11:22:32.174Z,19.31
2019-05-26T11:25:05.950Z,19.28
2019-05-26T11:27:38.712Z,19.54
2019-05-26T11:30:14.443Z,19.35
2019-05-26T11:32:46.217Z,19.53
2019-05-26T11:35:19.592Z,19.44
2019-05-26T11:37:51.364Z,19.49
2019-05-26T11:40:23.268Z,19.60
2019-05-26T11:42:55.049Z,19.88
2019-05-26T11:45:26.816Z,20.45
2019-05-26T11:47:58.587Z,20.63
2019-05-26T11:50:30.355Z,20.55
2019-05-26T11:53:02.128Z,20.78
2019-05-26T11:55:33.895Z,20.66
2019-05-26T11:58:05.816Z,20.54
2019-05-26T12:00:37.928Z,20.66
2019-05-26T12:03:10.944Z,20.31
2019-05-26T12:05:42.712Z,20.93
2019-05-26T12:08:14.490Z,21.23
2019-05-26T12:10:46.251Z,20.96
2019-05-26T12:13:18.036Z,21.17
2019-05-26T12:15:49.822Z,20.96
2019-05-26T12:18:21.588Z,20.79
2019-05-26T12:20:53.355Z,20.34
2019-05-26T12:23:25.132Z,20.19
2019-05-26T12:25:56.901Z,20.19
2019-05-26T12:28:28.687Z,20.10
2019-05-26T12:31:00.468Z,19.98
2019-05-26T12:33:32.245Z,20.46
2019-05-26T12:36:04.620Z,20.79
2019-05-26T12:38:38.037Z,21.05
2019-05-26T12:41:09.977Z,21.13
2019-05-26T12:43:42.665Z,21.10
2019-05-26T12:46:14.811Z,21.35
2019-05-26T12:48:46.771Z,21.24
2019-05-26T12:51:18.614Z,20.73
2019-05-26T12:53:50.391Z,21.28
2019-05-26T12:56:22.161Z,21.47
2019-05-26T12:58:53.935Z,20.94
2019-05-26T13:01:25.870Z,20.43
2019-05-26T13:03:57.644Z,20.55
2019-05-26T13:06:29.407Z,20.39
2019-05-26T13:09:01.190Z,20.51
2019-05-26T13:11:34.323Z,20.82
2019-05-26T13:14:06.357Z,20.75
2019-05-26T13:16:39.185Z,20.52
2019-05-26T13:19:11.239Z,21.02
2019-05-26T13:21:43.086Z,21.57
2019-05-26T13:24:14.862Z,21.24
2019-05-26T13:26:46.644Z,21.07
2019-05-26T13:29:18.421Z,21.46
2019-05-26T13:31:50.186Z,21.80
2019-05-26T13:34:22.055Z,21.80
2019-05-26T13:36:53.794Z,22.31
2019-05-26T13:39:26.477Z,22.59
2019-05-26T13:41:58.258Z,22.07
2019-05-26T13:44:30.572Z,22.17
2019-05-26T13:47:02.338Z,21.53
2019-05-26T13:49:34.134Z,21.71
2019-05-26T13:52:05.980Z,21.91
2019-05-26T13:54:37.741Z,22.12
2019-05-26T13:57:11.011Z,22.50
2019-05-26T13:59:42.792Z,22.60
2019-05-26T14:02:14.563Z,22.77
2019-05-26T14:04:46.348Z,22.85
2019-05-26T14:07:18.116Z,22.32
2019-05-26T14:09:49.894Z,21.90
2019-05-26T14:12:21.650Z,21.87
2019-05-26T14:14:54.396Z,22.16
2019-05-26T14:17:27.419Z,22.34
2019-05-26T14:20:01.585Z,22.53
2019-05-26T14:22:33.359Z,22.32
2019-05-26T14:25:07.443Z,22.11
2019-05-26T14:27:39.207Z,21.62
2019-05-26T14:30:11.318Z,21.38
2019-05-26T14:32:43.086Z,21.76
2019-05-26T14:35:14.941Z,21.94
2019-05-26T14:37:46.701Z,22.61
2019-05-26T14:40:18.640Z,22.38
2019-05-26T14:42:50.844Z,22.63
2019-05-26T14:45:22.958Z,22.40
2019-05-26T14:47:55.769Z,22.47
2019-05-26T14:50:27.688Z,22.80
2019-05-26T14:52:59.454Z,23.12
2019-05-26T14:55:31.237Z,22.68
2019-05-26T14:58:15.195Z,22.95
2019-05-26T15:00:36.490Z,23.08
2019-05-26T15:03:08.256Z,22.79
2019-05-26T15:05:40.023Z,22.07
2019-05-26T15:08:11.785Z,21.89
2019-05-26T15:10:43.560Z,21.88
2019-05-26T15:13:15.359Z,21.62
2019-05-26T15:15:47.117Z,21.72
2019-05-26T15:18:19.861Z,21.76
2019-05-26T15:20:51.648Z,22.21
2019-05-26T15:23:23.408Z,21.86
2019-05-26T15:25:56.152Z,22.20
2019-05-26T15:28:27.922Z,21.86
2019-05-26T15:30:59.705Z,21.79
2019-05-26T15:33:32.447Z,21.78
2019-05-26T15:36:04.249Z,21.90
2019-05-26T15:38:42.931Z,21.87
2019-05-26T15:41:09.481Z,21.80
2019-05-26T15:43:41.255Z,21.34
2019-05-26T15:46:24.710Z,20.85
2019-05-26T15:48:47.461Z,21.19
2019-05-26T16:31:16.649Z,22.68
2019-05-26T16:33:48.403Z,22.54
2019-05-26T16:36:21.469Z,22.39
2019-05-26T16:38:53.432Z,22.50
2019-05-26T16:41:25.206Z,22.31
2019-05-26T16:43:56.981Z,22.33
2019-05-26T16:46:28.764Z,22.40
2019-05-26T16:49:00.534Z,22.29
2019-05-26T16:51:32.328Z,22.11
2019-05-26T16:54:05.706Z,21.69
2019-05-26T16:56:37.476Z,21.56
2019-05-26T16:59:09.244Z,21.39
2019-05-26T17:01:41.023Z,21.01
2019-05-26T17:04:12.791Z,20.97
2019-05-26T17:06:44.570Z,20.85
2019-05-26T17:09:16.355Z,20.74
2019-05-26T17:11:48.130Z,20.83
2019-05-26T17:14:19.898Z,20.96
2019-05-26T17:16:51.687Z,21.04
2019-05-26T17:19:23.447Z,20.86
2019-05-26T17:21:55.313Z,20.53
2019-05-26T17:24:27.079Z,20.48
2019-05-26T17:26:58.858Z,20.40
2019-05-26T17:29:30.627Z,20.46
2019-05-26T17:32:02.401Z,20.40
2019-05-26T17:34:34.176Z,20.38
2019-05-26T17:37:05.947Z,20.55
2019-05-26T17:39:37.713Z,20.45
2019-05-26T17:42:10.899Z,20.48
2019-05-26T17:44:43.716Z,20.49
2019-05-26T17:47:29.181Z,20.50
2019-05-26T17:49:49.032Z,20.60
2019-05-26T17:52:20.880Z,20.63
2019-05-26T17:54:52.671Z,20.76
2019-05-26T17:57:24.423Z,20.79
2019-05-26T17:59:56.269Z,20.60
2019-05-26T18:02:28.284Z,20.27
2019-05-26T18:05:01.021Z,19.96
2019-05-26T18:07:32.936Z,19.93
2019-05-26T18:10:07.483Z,20.21
2019-05-26T18:12:39.266Z,20.00
2019-05-26T18:15:11.733Z,19.94
2019-05-26T18:17:47.332Z,19.94
2019-05-26T18:20:17.115Z,19.75
2019-05-26T18:22:48.971Z,19.73
2019-05-26T18:25:20.839Z,19.96
2019-05-26T18:27:52.678Z,20.09
2019-05-26T18:30:25.292Z,20.19
2019-05-26T18:32:57.049Z,20.07
2019-05-26T18:35:28.950Z,20.00
2019-05-26T18:38:00.794Z,19.80
2019-05-26T18:40:32.631Z,19.69
2019-05-26T18:43:04.404Z,19.57
2019-05-26T18:45:36.242Z,19.35
2019-05-26T18:48:08.229Z,19.14
2019-05-26T18:50:40.130Z,19.07
2019-05-26T18:53:12.058Z,19.03
2019-05-26T18:55:43.829Z,18.97
2019-05-26T18:58:15.677Z,18.69
2019-05-26T19:00:47.441Z,18.73
2019-05-26T19:03:19.226Z,18.50
2019-05-26T19:05:50.989Z,18.42
2019-05-26T19:08:22.768Z,18.40
2019-05-26T19:10:54.535Z,18.32
2019-05-26T19:13:26.312Z,18.23
2019-05-26T19:15:58.074Z,18.18
2019-05-26T19:18:29.858Z,18.14
2019-05-26T19:21:03.341Z,18.08
2019-05-26T19:23:36.181Z,18.02
2019-05-26T19:26:08.023Z,17.92
2019-05-26T19:28:40.759Z,17.72
2019-05-26T19:31:12.525Z,17.56
2019-05-26T19:33:44.304Z,17.36
2019-05-26T19:36:16.151Z,17.30
2019-05-26T19:38:47.930Z,17.16
2019-05-26T19:41:19.697Z,16.95
2019-05-26T19:43:52.490Z,16.70
2019-05-26T19:46:24.927Z,16.63
2019-05-26T19:48:56.721Z,16.50
2019-05-26T19:51:28.494Z,16.29
2019-05-26T19:54:00.278Z,16.11
2019-05-26T19:56:32.048Z,16.02
2019-05-26T19:59:03.828Z,15.85
2019-05-26T20:01:35.600Z,15.79
2019-05-26T20:04:07.392Z,15.71
2019-05-26T20:06:39.158Z,15.64
2019-05-26T20:09:11.418Z,15.48
2019-05-26T20:11:43.194Z,15.47
2019-05-26T20:14:14.978Z,15.30
2019-05-26T20:16:46.746Z,15.20
2019-05-26T20:19:18.605Z,15.19
2019-05-26T20:21:50.375Z,15.13
2019-05-26T20:24:22.164Z,15.03
2019-05-26T20:26:54.253Z,15.06
2019-05-26T20:29:26.032Z,15.05
2019-05-26T20:31:57.799Z,15.05
2019-05-26T20:34:30.559Z,15.07
2019-05-26T20:37:02.371Z,15.01
2019-05-26T20:39:34.108Z,14.99
2019-05-26T20:42:06.498Z,14.93
2019-05-26T20:44:38.429Z,14.91
2019-05-26T20:47:11.398Z,14.80
2019-05-26T20:49:45.727Z,14.69
2019-05-26T20:52:17.017Z,14.69
2019-05-26T20:54:48.790Z,14.57
2019-05-26T20:57:20.561Z,14.52
2019-05-26T20:59:52.342Z,14.46
2019-05-26T21:02:24.117Z,14.43
2019-05-26T21:04:55.901Z,14.33
2019-05-26T21:07:28.415Z,14.27
2019-05-26T21:10:00.300Z,14.29
2019-05-26T21:12:32.031Z,14.17
2019-05-26T21:15:04.076Z,14.19
2019-05-26T21:17:35.918Z,14.10
2019-05-26T21:20:10.305Z,14.06
2019-05-26T21:22:42.073Z,13.99
2019-05-26T21:25:14.192Z,13.98
2019-05-26T21:27:45.966Z,13.92
2019-05-26T21:30:19.142Z,13.84
2019-05-26T21:32:50.941Z,13.81
2019-05-26T21:35:23.006Z,13.80
2019-05-26T21:37:54.773Z,13.77
2019-05-26T21:40:26.551Z,13.78
2019-05-26T21:42:58.324Z,13.72
2019-05-26T21:45:30.106Z,13.69
2019-05-26T21:48:01.882Z,13.59
2019-05-26T21:50:33.658Z,13.53
2019-05-26T21:53:05.497Z,13.48
2019-05-26T21:55:37.279Z,13.39
2019-05-26T21:58:09.049Z,13.27
2019-05-26T22:00:42.855Z,13.22
2019-05-26T22:03:14.705Z,13.10
2019-05-26T22:05:46.484Z,13.11
2019-05-26T22:08:19.254Z,13.12
2019-05-26T22:10:51.034Z,13.15
2019-05-26T22:13:24.437Z,13.13
2019-05-26T22:15:56.294Z,13.08
2019-05-26T22:18:28.063Z,13.05
2019-05-26T22:20:59.851Z,13.04
2019-05-26T22:23:31.622Z,12.99
2019-05-26T22:26:03.402Z,12.94
2019-05-26T22:28:35.169Z,12.79
2019-05-26T22:31:06.947Z,12.76
2019-05-26T22:33:38.720Z,12.69
2019-05-26T22:36:10.933Z,12.57
2019-05-26T22:38:43.008Z,12.43
2019-05-26T22:41:14.793Z,12.40
2019-05-26T22:43:46.564Z,12.35
2019-05-26T22:46:18.349Z,12.28
2019-05-26T22:48:50.120Z,12.30
2019-05-26T22:51:21.908Z,12.23
2019-05-26T22:53:53.989Z,12.24
2019-05-26T22:56:25.766Z,12.21
2019-05-26T22:58:57.613Z,12.15
2019-05-26T23:01:29.465Z,12.13
2019-05-26T23:04:03.245Z,12.09
2019-05-26T23:06:34.783Z,12.11
2019-05-26T23:09:07.494Z,12.03
2019-05-26T23:11:39.278Z,11.99
2019-05-26T23:14:11.056Z,11.96
2019-05-26T23:16:42.840Z,11.92
2019-05-26T23:19:19.251Z,11.88
2019-05-26T23:21:48.368Z,11.85
2019-05-26T23:24:20.143Z,11.86
2019-05-26T23:26:51.924Z,11.84
2019-05-26T23:29:23.700Z,11.76
2019-05-26T23:31:55.519Z,11.65
2019-05-26T23:34:27.286Z,11.66
2019-05-26T23:36:59.135Z,11.53
2019-05-26T23:39:30.903Z,11.44
2019-05-26T23:42:02.687Z,11.35
2019-05-26T23:44:34.460Z,11.34
2019-05-26T23:47:06.236Z,11.32
2019-05-26T23:49:38.189Z,11.31
2019-05-26T23:52:11.218Z,11.31
2019-05-26T23:54:42.988Z,11.34
2019-05-26T23:57:14.768Z,11.41
2019-05-26T23:59:46.544Z,11.36
